Time;durP1;ratioP1;P1;durP2;ratioP2;P2;SDS_P1;SDS_P2;PMS_P1;PMS_P2;Temp;Humidity;BMP_temperature;BMP_pressure;BME280_temperature;BME280_humidity;BME280_pressure;Samples;Min_cycle;Max_cycle;Signal;HPM_P1;HPM_P2
2021/04/21 00:01:55;;;;;;;9.70;5.82;;;;;;;5.19;45.59;101633.69;4977293;28;20030;-65
2021/04/21 00:04:29;;;;;;;8.25;5.78;;;;;;;5.06;46.17;101627.72;4992155;28;20034;-63
2021/04/21 00:06:59;;;;;;;8.73;6.30;;;;;;;5.08;46.10;101626.00;4978790;28;20038;-62
2021/04/21 00:09:32;;;;;;;8.77;6.45;;;;;;;5.20;45.86;101625.91;4978600;28;20173;-61
2021/04/21 00:12:11;;;;;;;9.93;7.35;;;;;;;5.36;45.39;101628.41;4979552;28;20037;-62
2021/04/21 00:14:36;;;;;;;9.48;6.05;;;;;;;5.27;45.57;101628.47;4978823;28;20486;-63
2021/04/21 00:17:19;;;;;;;7.20;5.40;;;;;;;5.28;45.55;101630.19;4978652;28;20038;-62
2021/04/21 00:20:04;;;;;;;7.68;4.93;;;;;;;5.24;45.91;101617.25;4979280;28;20126;-62
2021/04/21 00:22:34;;;;;;;9.07;6.03;;;;;;;5.27;45.78;101626.72;4975743;28;20041;-62
2021/04/21 00:25:03;;;;;;;11.93;6.28;;;;;;;5.30;45.52;101624.16;4976975;28;20034;-62
2021/04/21 00:27:32;;;;;;;8.27;5.93;;;;;;;5.17;45.89;101612.97;4976542;28;20038;-63
2021/04/21 00:30:14;;;;;;;;;;;;;;;5.22;45.54;101606.03;4978350;28;20034;-61
2021/04/21 00:32:56;;;;;;;6.90;5.80;;;;;;;5.09;45.73;101614.75;4971442;28;20017;-62
2021/04/21 00:35:45;;;;;;;9.38;6.25;;;;;;;4.96;46.05;101611.34;4979292;28;20049;-63
2021/04/21 00:38:23;;;;;;;11.50;6.43;;;;;;;4.86;46.54;101606.19;4972819;28;20049;-63
2021/04/21 00:40:48;;;;;;;12.10;5.53;;;;;;;5.02;46.56;101607.88;4975271;28;20057;-63
2021/04/21 00:43:25;;;;;;;8.38;6.22;;;;;;;5.05;46.65;101618.22;4977708;28;20413;-63
2021/04/21 00:46:10;;;;;;;12.18;6.15;;;;;;;5.03;46.20;101618.25;4977558;28;20543;-63
2021/04/21 00:49:00;;;;;;;7.15;5.95;;;;;;;4.76;46.06;101618.31;4977391;28;20035;-63
2021/04/21 00:51:39;;;;;;;9.60;5.63;;;;;;;4.70;46.14;101610.56;4972432;28;20042;-62
2021/04/21 00:54:28;;;;;;;8.48;6.07;;;;;;;4.69;46.58;101612.28;4976925;28;20034;-63
2021/04/21 00:57:37;;;;;;;7.95;5.60;;;;;;;4.73;46.03;101607.97;4973020;28;20046;-63
2021/04/21 01:00:10;;;;;;;9.02;5.75;;;;;;;4.67;45.99;101603.66;4955783;28;20046;-63
2021/04/21 01:03:28;;;;;;;7.90;5.78;;;;;;;4.62;45.93;101600.25;4974594;28;20055;-62
2021/04/21 01:06:05;;;;;;;9.02;6.43;;;;;;;4.58;46.58;101599.38;4968564;28;20063;-63
2021/04/21 01:08:55;;;;;;;11.50;6.28;;;;;;;4.64;45.63;101603.69;4975195;28;20581;-62
2021/04/21 01:11:55;;;;;;;9.98;6.03;;;;;;;4.56;46.19;101605.44;4976416;28;20475;-62
2021/04/21 01:14:30;;;;;;;8.32;5.85;;;;;;;4.37;46.70;101599.47;4975696;28;20135;-62
2021/04/21 01:17:08;;;;;;;8.82;5.85;;;;;;;4.72;45.83;101604.53;4981553;28;20053;-62
2021/04/21 01:19:41;;;;;;;8.82;6.95;;;;;;;4.63;46.33;101607.13;4979478;28;20034;-62
2021/04/21 01:22:22;;;;;;;10.02;6.00;;;;;;;4.54;46.25;101596.81;4981943;28;20041;-63
2021/04/21 01:24:59;;;;;;;9.05;6.65;;;;;;;4.53;46.25;101606.31;4980302;28;20033;-63
2021/04/21 01:27:51;;;;;;;8.57;5.03;;;;;;;4.43;46.22;101596.81;4982405;28;20040;-62
2021/04/21 01:30:19;;;;;;;9.60;5.55;;;;;;;4.22;46.39;101600.34;4980236;28;20038;-61
2021/04/21 01:32:51;;;;;;;7.40;5.75;;;;;;;4.22;46.54;101598.59;4975921;28;20026;-61
2021/04/21 01:35:24;;;;;;;8.50;5.88;;;;;;;4.26;46.15;101598.63;4978874;28;20121;-63
2021/04/21 01:37:54;;;;;;;10.48;6.22;;;;;;;4.20;46.57;101599.47;4980968;28;20034;-61
2021/04/21 01:41:00;;;;;;;10.57;5.47;;;;;;;3.97;46.76;101590.03;4982489;28;20061;-62
2021/04/21 01:43:37;;;;;;;12.27;5.85;;;;;;;4.05;46.68;101597.78;4977628;28;20133;-62
2021/04/21 01:46:49;;;;;;;9.23;5.10;;;;;;;4.05;46.45;101597.78;4981592;28;20161;-62
2021/04/21 01:49:23;;;;;;;11.65;6.07;;;;;;;4.12;46.62;101594.34;4981217;28;20596;-62
2021/04/21 01:52:50;;;;;;;12.38;5.38;;;;;;;3.86;46.52;101591.75;4976130;28;20034;-63
2021/04/21 01:55:46;;;;;;;7.28;5.53;;;;;;;3.92;47.31;101596.09;4974242;28;20129;-63
2021/04/21 01:58:43;;;;;;;7.15;5.22;;;;;;;4.00;46.66;101600.34;4979712;28;20034;-65
2021/04/21 02:01:40;;;;;;;9.63;6.15;;;;;;;3.96;46.60;101590.91;4981178;28;20439;-63
2021/04/21 02:04:23;;;;;;;8.60;6.35;;;;;;;3.78;46.63;101589.19;4975574;28;20120;-63
2021/04/21 02:07:16;;;;;;;8.65;5.75;;;;;;;3.78;46.80;101586.59;4977135;28;20092;-63
2021/04/21 02:10:02;;;;;;;12.55;6.53;;;;;;;3.82;46.83;101594.34;4981191;28;20064;-63
2021/04/21 02:12:51;;;;;;;10.43;6.43;;;;;;;3.90;46.49;101590.91;4972125;28;20031;-63
2021/04/21 02:15:59;;;;;;;;;;;;;;;;;;;;;
2021/04/21 02:18:43;;;;;;;11.07;6.25;;;;;;;3.79;46.43;101592.63;4981416;28;20034;-62
2021/04/21 02:21:22;;;;;;;9.10;6.70;;;;;;;3.78;46.66;101584.03;4981656;28;20085;-62
2021/04/21 02:23:59;;;;;;;7.43;5.50;;;;;;;3.80;46.73;101591.75;4977612;28;20052;-62
2021/04/21 02:26:44;;;;;;;9.32;5.57;;;;;;;3.80;46.42;101584.00;4979328;28;20069;-63
2021/04/21 02:29:26;;;;;;;9.07;6.47;;;;;;;3.94;46.52;101583.97;4973491;28;20495;-62
2021/04/21 02:32:27;;;;;;;10.82;6.90;;;;;;;3.93;46.09;101580.53;4976219;28;20031;-61
2021/04/21 02:35:19;;;;;;;13.45;6.78;;;;;;;3.79;46.31;101590.03;4974896;28;20105;-62
2021/04/21 02:37:46;;;;;;;10.73;6.53;;;;;;;3.78;46.43;101583.13;4977888;28;20430;-64
2021/04/21 02:40:20;;;;;;;10.63;6.50;;;;;;;3.84;46.65;101579.69;4978212;28;20154;-62
2021/04/21 02:43:14;;;;;;;13.27;7.40;;;;;;;3.97;47.09;101579.69;4974797;28;20034;-61
2021/04/21 02:45:58;;;;;;;11.02;7.22;;;;;;;3.97;46.79;101579.69;4979119;28;20038;-61
2021/04/21 02:48:42;;;;;;;12.20;7.22;;;;;;;4.10;46.51;101583.13;4977268;28;20030;-66
2021/04/21 02:51:15;;;;;;;9.77;6.90;;;;;;;4.00;46.85;101579.66;4976432;28;20034;-66
2021/04/21 02:54:11;;;;;;;12.40;6.80;;;;;;;3.94;47.04;101587.47;4978795;28;20037;-66
2021/04/21 02:57:06;;;;;;;10.50;6.60;;;;;;;3.88;46.60;101573.66;4977997;28;20557;-63
2021/04/21 02:59:53;;;;;;;9.13;6.65;;;;;;;3.79;46.61;101585.72;4960178;28;20030;-62
2021/04/21 03:02:39;;;;;;;11.38;7.13;;;;;;;3.83;46.89;101575.38;4980226;28;20033;-61
2021/04/21 03:05:21;;;;;;;12.60;8.25;;;;;;;3.80;46.94;101584.00;4978475;28;20030;-62
2021/04/21 03:07:58;;;;;;;14.15;7.80;;;;;;;3.79;47.10;101585.72;4980822;28;20496;-62
2021/04/21 03:10:36;;;;;;;12.07;8.23;;;;;;;3.58;47.14;101581.44;4979320;28;20042;-61
2021/04/21 03:13:11;;;;;;;13.23;7.32;;;;;;;3.75;47.00;101580.56;4977337;28;20596;-62
2021/04/21 03:15:52;;;;;;;14.48;9.73;;;;;;;3.75;46.95;101584.00;4979916;28;20039;-64
2021/04/21 03:18:26;;;;;;;11.48;7.97;;;;;;;3.62;46.96;101586.59;4976516;28;20042;-62
2021/04/21 03:21:04;;;;;;;13.98;7.63;;;;;;;3.41;46.93;101582.28;4979936;28;20403;-62
2021/04/21 03:23:33;;;;;;;15.23;8.32;;;;;;;3.30;47.30;101584.84;4978746;28;20033;-63
2021/04/21 03:26:06;;;;;;;19.55;7.88;;;;;;;3.27;46.87;101600.28;4971816;28;20058;-62
2021/04/21 03:28:37;;;;;;;15.90;8.23;;;;;;;3.17;47.92;101600.28;4974682;28;20469;-62
2021/04/21 03:31:05;;;;;;;21.63;10.15;;;;;;;3.28;49.27;101591.69;4979744;28;20042;-61
2021/04/21 03:33:38;;;;;;;18.88;11.25;;;;;;;3.53;49.59;101593.47;4975610;28;20034;-62
2021/04/21 03:36:09;;;;;;;19.88;12.05;;;;;;;3.66;49.47;101588.31;4976811;28;20038;-64
2021/04/21 03:38:51;;;;;;;22.98;10.63;;;;;;;3.75;49.48;101580.56;4971874;28;20419;-65
2021/04/21 03:41:20;;;;;;;18.08;12.25;;;;;;;3.71;49.62;101587.44;4978294;28;20616;-65
2021/04/21 03:43:58;;;;;;;16.20;11.48;;;;;;;3.75;49.63;101583.16;4976103;28;20072;-64
2021/04/21 03:46:27;;;;;;;16.02;11.38;;;;;;;3.65;50.11;101581.41;4973328;28;20100;-65
2021/04/21 03:48:59;;;;;;;21.63;12.52;;;;;;;3.55;50.71;101581.41;4976918;28;20046;-64
2021/04/21 03:51:25;;;;;;;21.05;13.23;;;;;;;3.69;50.92;101588.31;4978085;28;20871;-64
2021/04/21 03:54:03;;;;;;;21.20;13.52;;;;;;;3.75;51.34;101576.25;4979351;28;20518;-64
2021/04/21 03:56:32;;;;;;;21.33;13.13;;;;;;;3.95;50.90;101571.06;4977481;28;20026;-65
2021/04/21 03:59:01;;;;;;;18.40;13.40;;;;;;;4.08;51.01;101571.06;4975943;28;20766;-65
2021/04/21 04:01:27;;;;;;;20.33;12.02;;;;;;;4.17;50.92;101566.72;4976696;28;20129;-65
2021/04/21 04:04:01;;;;;;;18.92;12.93;;;;;;;4.21;50.78;101562.41;4977107;28;20042;-65
2021/04/21 04:06:42;;;;;;;;;;;;;;;4.17;51.00;101565.84;4978583;28;20038;-64
2021/04/21 04:09:20;;;;;;;16.98;12.45;;;;;;;4.16;50.57;101561.53;4978080;28;19914;-64
2021/04/21 04:11:55;;;;;;;24.55;13.60;;;;;;;4.15;50.35;101562.41;4976171;28;20567;-65
2021/04/21 04:14:28;;;;;;;18.35;12.65;;;;;;;4.01;50.53;101568.47;4975880;28;20034;-65
2021/04/21 04:17:10;;;;;;;17.42;11.27;;;;;;;4.12;50.47;101565.88;4975283;28;20030;-65
2021/04/21 04:19:49;;;;;;;12.88;9.45;;;;;;;4.17;50.32;101571.88;4978150;28;20045;-65
2021/04/21 04:22:48;;;;;;;17.80;12.60;;;;;;;4.14;50.32;101571.91;4957139;28;20038;-65
2021/04/21 04:25:15;;;;;;;19.38;13.23;;;;;;;4.24;50.51;101580.50;4974686;28;20038;-63
2021/04/21 04:28:00;;;;;;;21.13;13.13;;;;;;;4.27;50.75;101585.66;4975561;28;20026;-64
2021/04/21 04:30:37;;;;;;;23.75;13.73;;;;;;;4.20;51.27;101591.72;4977469;28;20101;-61
2021/04/21 04:33:07;;;;;;;15.73;9.85;;;;;;;4.36;51.12;101583.06;4975742;28;20093;-62
2021/04/21 04:35:37;;;;;;;20.80;13.93;;;;;;;4.42;51.28;101588.22;4978134;28;20555;-61
2021/04/21 04:38:08;;;;;;;23.45;13.40;;;;;;;4.60;50.60;101594.19;4977099;28;20039;-62
2021/04/21 04:40:38;;;;;;;21.02;13.00;;;;;;;4.52;50.63;101594.25;4977930;28;20049;-60
2021/04/21 04:43:11;;;;;;;21.45;12.85;;;;;;;4.77;50.48;101605.38;4979025;28;20045;-61
2021/04/21 04:45:42;;;;;;;20.73;12.20;;;;;;;4.78;50.24;101595.84;4978405;28;20034;-62
2021/04/21 04:48:25;;;;;;;19.55;13.50;;;;;;;4.84;50.16;101604.47;4976910;28;20041;-62
2021/04/21 04:51:07;;;;;;;19.50;11.55;;;;;;;4.85;50.08;101600.13;4993885;28;20033;-62
2021/04/21 04:53:45;;;;;;;16.80;12.43;;;;;;;4.98;49.65;101613.94;4984242;28;20098;-60
2021/04/21 04:56:11;;;;;;;20.17;12.25;;;;;;;4.95;49.81;101606.19;4974947;28;20114;-61
2021/04/21 04:58:47;;;;;;;16.42;10.38;;;;;;;5.18;49.64;101606.91;4983419;28;20046;-62
2021/04/21 05:01:15;;;;;;;14.10;10.65;;;;;;;5.28;49.22;101618.09;4980849;28;20034;-63
2021/04/21 05:03:59;;;;;;;15.32;11.30;;;;;;;5.35;48.96;101622.38;4978335;28;20038;-62
2021/04/21 05:06:37;;;;;;;20.13;10.90;;;;;;;5.46;48.78;101627.50;4980314;28;20065;-62
2021/04/21 05:09:19;;;;;;;16.80;10.52;;;;;;;5.44;49.35;101629.25;4981297;28;20044;-62
2021/04/21 05:12:01;;;;;;;17.25;10.88;;;;;;;5.57;48.89;101628.28;4979722;28;20070;-62
2021/04/21 05:14:34;;;;;;;17.10;11.77;;;;;;;6.18;47.94;101628.66;4977571;28;20161;-62
2021/04/21 05:17:26;;;;;;;15.60;11.55;;;;;;;6.37;47.00;101631.94;4977164;28;20088;-62
2021/04/21 05:20:24;;;;;;;17.15;10.80;;;;;;;6.76;46.03;101640.19;4979159;28;20110;-62
2021/04/21 05:23:16;;;;;;;15.93;10.30;;;;;;;7.20;45.17;101631.81;4978529;28;20027;-62
2021/04/21 05:26:05;;;;;;;20.02;10.95;;;;;;;7.41;44.46;101632.41;4977096;28;20925;-62
2021/04/21 05:29:22;;;;;;;;;;;;;;;;;;;;;
2021/04/21 05:32:02;;;;;;;17.30;9.32;;;;;;;8.33;42.93;101631.75;4979542;28;20118;-64
2021/04/21 05:35:08;;;;;;;16.00;10.02;;;;;;;9.06;40.43;101627.75;4976564;28;20041;-60
2021/04/21 05:37:57;;;;;;;24.23;10.27;;;;;;;9.89;40.19;101641.50;4976050;28;20050;-61
2021/04/21 05:40:51;;;;;;;12.70;8.70;;;;;;;11.58;36.00;101636.75;4981528;28;20049;-62
2021/04/21 05:43:56;;;;;;;13.55;9.65;;;;;;;12.23;35.79;101636.34;4981017;28;20057;-61
2021/04/21 05:47:35;;;;;;;15.90;10.13;;;;;;;12.63;35.40;101629.66;4974532;28;20058;-61
2021/04/21 05:50:24;;;;;;;15.63;9.93;;;;;;;13.56;33.35;101631.38;4975831;28;20093;-62
2021/04/21 05:53:02;;;;;;;23.55;10.63;;;;;;;13.71;33.40;101638.69;4975179;28;20054;-61
2021/04/21 05:56:17;;;;;;;19.60;11.90;;;;;;;11.99;36.73;101642.41;4978362;28;20394;-61
2021/04/21 05:59:21;;;;;;;28.05;13.77;;;;;;;10.13;40.97;101646.13;4981378;28;20026;-61
2021/04/21 06:02:02;;;;;;;29.58;14.50;;;;;;;9.28;44.31;101655.06;4979804;28;20451;-61
2021/04/21 06:04:35;;;;;;;33.30;17.20;;;;;;;8.46;47.40;101658.44;5002188;22;20116;-70
2021/04/21 06:07:06;;;;;;;33.20;17.88;;;;;;;8.35;48.28;101661.22;5022083;28;20503;-70
2021/04/21 06:09:31;;;;;;;45.72;20.45;;;;;;;7.56;51.05;101666.03;5020918;28;20034;-70
2021/04/21 06:12:12;;;;;;;48.15;21.45;;;;;;;8.02;49.97;101662.69;5022224;28;20671;-70
2021/04/21 06:14:38;;;;;;;42.97;20.13;;;;;;;8.18;49.98;101662.41;5023528;28;20045;-70
2021/04/21 06:17:05;;;;;;;44.92;20.92;;;;;;;8.48;49.67;101659.28;5019172;28;20036;-69
2021/04/21 06:19:31;;;;;;;42.85;21.60;;;;;;;8.71;49.06;101665.81;5024483;28;20029;-69
2021/04/21 06:21:56;;;;;;;41.30;20.35;;;;;;;8.57;49.47;101663.47;5019517;28;20744;-69
2021/04/21 06:24:25;;;;;;;41.30;19.02;;;;;;;8.70;49.00;101657.13;5022874;28;20053;-70
2021/04/21 06:27:05;;;;;;;38.67;19.00;;;;;;;8.61;49.40;101666.88;5017561;28;20029;-70
2021/04/21 06:29:30;;;;;;;41.80;18.58;;;;;;;8.59;50.05;101673.84;5017030;28;20061;-68
2021/04/21 06:32:02;;;;;;;38.80;17.17;;;;;;;8.39;50.65;101679.44;5020055;28;21719;-69
2021/04/21 06:34:27;;;;;;;40.83;16.58;;;;;;;8.31;50.40;101683.00;5020021;28;20120;-68
2021/04/21 06:36:58;;;;;;;35.20;15.80;;;;;;;8.13;51.05;101685.94;5019435;28;20133;-69
2021/04/21 06:39:25;;;;;;;35.25;15.68;;;;;;;7.72;51.92;101690.91;5026057;28;20445;-69
2021/04/21 06:41:55;;;;;;;31.42;14.23;;;;;;;7.54;52.84;101693.78;5018768;28;20129;-68
2021/04/21 06:44:42;;;;;;;38.75;16.65;;;;;;;7.75;51.76;101695.22;5024757;28;20033;-69
2021/04/21 06:47:28;;;;;;;30.10;14.00;;;;;;;8.14;50.70;101701.53;5019468;28;20045;-69
2021/04/21 06:50:02;;;;;;;30.17;14.32;;;;;;;7.93;51.14;101699.28;5023843;28;20645;-71
2021/04/21 06:52:40;;;;;;;35.75;14.48;;;;;;;7.31;52.66;101700.16;5010068;28;20550;-69
2021/04/21 06:55:15;;;;;;;33.65;13.88;;;;;;;7.78;50.84;101692.59;5015115;28;20040;-68
2021/04/21 06:57:42;;;;;;;39.67;16.10;;;;;;;7.96;50.58;101704.47;5035952;28;20040;-69
2021/04/21 07:00:14;;;;;;;37.67;17.20;;;;;;;7.81;50.41;101702.94;5017445;28;20113;-69
2021/04/21 07:02:43;;;;;;;38.90;17.20;;;;;;;8.10;49.69;101705.09;5007491;28;20061;-69
2021/04/21 07:05:36;;;;;;;33.03;15.80;;;;;;;8.80;47.05;101699.53;5017408;28;20041;-69
2021/04/21 07:08:04;;;;;;;32.05;14.65;;;;;;;8.28;48.07;101708.28;5021589;28;20124;-69
2021/04/21 07:10:37;;;;;;;27.42;14.02;;;;;;;8.55;48.04;101712.97;5017974;28;20124;-69
2021/04/21 07:13:09;;;;;;;25.85;13.25;;;;;;;8.20;48.77;101712.75;5019765;28;20129;-70
2021/04/21 07:15:35;;;;;;;25.67;13.60;;;;;;;8.85;47.38;101710.75;5023162;28;20030;-68
2021/04/21 07:18:02;;;;;;;39.88;13.57;;;;;;;8.68;47.45;101715.38;5038696;28;20076;-70
2021/04/21 07:20:28;;;;;;;33.70;14.15;;;;;;;8.46;47.96;101715.75;5019479;28;20033;-69
2021/04/21 07:22:55;;;;;;;34.65;13.75;;;;;;;8.79;48.39;101716.06;5023442;28;20040;-70
2021/04/21 07:25:21;;;;;;;31.45;14.02;;;;;;;9.45;46.21;101716.47;5021078;28;20473;-70
2021/04/21 07:27:52;;;;;;;19.00;10.48;;;;;;;9.54;44.95;101721.47;5020606;28;20052;-71
2021/04/21 07:30:26;;;;;;;18.65;9.13;;;;;;;9.05;45.49;101715.53;5022953;28;20038;-71
2021/04/21 07:32:51;;;;;;;16.42;8.88;;;;;;;8.25;47.39;101723.94;5021658;28;20538;-69
2021/04/21 07:35:20;;;;;;;18.05;9.05;;;;;;;8.54;46.63;101724.31;5024219;28;20034;-71
2021/04/21 07:37:46;;;;;;;16.85;7.95;;;;;;;8.25;47.18;101726.53;5022293;28;20035;-71
2021/04/21 07:40:22;;;;;;;18.65;7.72;;;;;;;8.30;47.25;101719.53;5019401;28;20562;-69
2021/04/21 07:42:48;;;;;;;18.20;8.27;;;;;;;8.12;47.58;101724.16;5017076;28;20079;-68
2021/04/21 07:45:14;;;;;;;14.60;7.75;;;;;;;7.98;47.39;101731.31;5018573;28;20038;-71
2021/04/21 07:47:40;;;;;;;22.63;7.88;;;;;;;8.19;47.32;101734.47;5015271;28;20401;-69
2021/04/21 07:50:08;;;;;;;15.38;6.47;;;;;;;8.42;46.53;101737.53;5015722;28;20030;-69
2021/04/21 07:52:36;;;;;;;11.68;5.95;;;;;;;8.56;45.80;101739.88;5022420;28;20033;-69
2021/04/21 07:55:08;;;;;;;10.10;5.95;;;;;;;8.57;46.61;101733.81;5038012;28;20042;-69
2021/04/21 07:57:35;;;;;;;10.80;4.97;;;;;;;8.71;45.72;101742.25;5021568;28;20648;-68
2021/04/21 08:00:00;;;;;;;11.68;6.95;;;;;;;8.75;45.39;101740.47;5018210;28;20129;-68
2021/04/21 08:02:30;;;;;;;6.47;3.38;;;;;;;8.72;45.63;101745.75;5020039;28;20037;-69
2021/04/21 08:05:11;;;;;;;8.10;3.53;;;;;;;8.55;45.58;101749.47;5011340;28;20108;-69
2021/04/21 08:07:53;;;;;;;9.82;4.35;;;;;;;8.17;47.36;101749.25;5014834;28;20394;-69
2021/04/21 08:10:26;;;;;;;11.93;4.30;;;;;;;9.01;44.99;101749.53;5032569;28;20095;-69
2021/04/21 08:12:53;;;;;;;7.95;3.50;;;;;;;8.73;45.55;101765.69;5015849;28;20126;-70
2021/04/21 08:15:25;;;;;;;2.63;1.85;;;;;;;7.89;47.27;101754.88;5020132;28;20064;-68
2021/04/21 08:17:53;;;;;;;9.85;1.95;;;;;;;8.08;46.98;101764.13;5004340;28;20476;-69
2021/04/21 08:20:43;;;;;;;7.53;1.55;;;;;;;8.61;45.36;101764.16;5014287;28;20030;-68
2021/04/21 08:23:10;;;;;;;4.55;2.28;;;;;;;8.78;44.88;101774.28;5003071;28;20049;-68
2021/04/21 08:25:36;;;;;;;4.72;1.33;;;;;;;8.79;44.81;101769.97;5011874;28;20038;-69
2021/04/21 08:28:04;;;;;;;6.53;1.38;;;;;;;8.86;45.17;101781.97;5013316;28;20040;-69
2021/04/21 08:30:31;;;;;;;5.07;1.45;;;;;;;9.27;43.78;101781.16;5012146;28;20530;-69
2021/04/21 08:32:56;;;;;;;8.18;1.95;;;;;;;9.69;42.91;101786.38;5006206;28;20052;-69
2021/04/21 08:35:22;;;;;;;6.38;1.17;;;;;;;9.12;43.50;101789.28;5018163;28;20029;-69
2021/04/21 08:37:48;;;;;;;5.57;0.80;;;;;;;9.18;43.25;101799.63;5013155;28;20029;-68
2021/04/21 08:40:17;;;;;;;1.30;0.45;;;;;;;9.74;41.48;101784.53;5019535;28;20112;-69
2021/04/21 08:42:47;;;;;;;2.03;0.43;;;;;;;9.10;40.71;101788.50;5010843;28;20041;-69
2021/04/21 08:45:13;;;;;;;9.13;1.20;;;;;;;8.68;41.92;101789.19;5004767;22;20069;-65
2021/04/21 08:47:40;;;;;;;4.72;0.95;;;;;;;8.85;41.63;101791.56;4980615;28;20045;-65
2021/04/21 08:50:08;;;;;;;3.88;0.85;;;;;;;9.05;39.73;101800.72;4983954;28;20072;-64
2021/04/21 08:53:06;;;;;;;3.25;0.20;;;;;;;8.79;40.20;101796.03;4985315;28;20117;-63
2021/04/21 08:55:32;;;;;;;2.72;0.40;;;;;;;9.01;40.05;101794.75;4983070;28;20156;-67
2021/04/21 08:58:01;;;;;;;6.95;1.02;;;;;;;9.00;40.06;101797.38;4989386;28;20179;-65
2021/04/21 09:00:26;;;;;;;2.92;0.65;;;;;;;9.21;39.91;101799.56;4985703;28;20030;-64
2021/04/21 09:02:52;;;;;;;7.88;0.50;;;;;;;9.84;38.91;101800.91;4985952;28;20022;-65
2021/04/21 09:05:19;;;;;;;5.53;1.20;;;;;;;10.54;37.79;101813.19;4988057;28;20042;-65
2021/04/21 09:07:45;;;;;;;9.45;1.20;;;;;;;10.47;37.40;101807.25;4983376;28;20030;-63
2021/04/21 09:10:14;;;;;;;9.10;0.38;;;;;;;10.49;37.61;101810.69;4987048;28;20084;-64
2021/04/21 09:12:40;;;;;;;8.55;0.80;;;;;;;10.43;37.91;101803.00;4984876;28;20037;-65
2021/04/21 09:15:08;;;;;;;4.97;0.60;;;;;;;10.06;38.02;101814.34;4989571;28;20297;-65
2021/04/21 09:17:42;;;;;;;5.28;0.70;;;;;;;9.93;37.60;101818.13;4985833;28;20085;-65
2021/04/21 09:20:11;;;;;;;7.97;0.68;;;;;;;9.71;37.33;101815.09;4987239;28;20050;-64
2021/04/21 09:22:59;;;;;;;4.72;0.52;;;;;;;10.14;36.01;101816.75;4983026;28;20034;-64
2021/04/21 09:25:31;;;;;;;4.22;0.30;;;;;;;9.98;36.92;101818.88;5000485;28;20077;-65
2021/04/21 09:27:56;;;;;;;6.78;0.30;;;;;;;9.94;36.29;101822.44;4984867;28;20144;-65
2021/04/21 09:30:23;;;;;;;3.42;0.30;;;;;;;9.92;36.21;101819.00;5001310;28;20038;-64
2021/04/21 09:32:54;;;;;;;10.27;0.40;;;;;;;9.91;36.71;101828.59;4987184;28;20030;-64
2021/04/21 09:35:32;;;;;;;6.90;0.95;;;;;;;9.62;38.14;101830.94;4990172;28;20510;-65
2021/04/21 09:38:25;;;;;;;2.75;0.70;;;;;;;10.06;37.20;101837.84;4988291;28;20097;-65
2021/04/21 09:40:58;;;;;;;8.77;1.05;;;;;;;9.84;37.72;101832.22;4986693;28;20140;-66
2021/04/21 09:43:28;;;;;;;10.38;1.00;;;;;;;9.83;38.07;101829.66;4987483;28;20429;-64
2021/04/21 09:45:55;;;;;;;5.63;0.88;;;;;;;9.65;38.39;101825.66;4990605;28;20038;-65
2021/04/21 09:48:27;;;;;;;6.97;0.80;;;;;;;9.66;39.03;101830.84;4988625;28;20033;-66
2021/04/21 09:50:57;;;;;;;;;;;;;;;10.00;37.71;101832.75;4989649;28;20684;-68
2021/04/21 09:53:27;;;;;;;5.80;0.68;;;;;;;9.66;38.29;101837.81;4988495;28;20784;-67
2021/04/21 09:56:10;;;;;;;9.63;0.50;;;;;;;10.08;36.78;101830.84;4989510;28;20042;-66
2021/04/21 09:58:44;;;;;;;6.03;0.63;;;;;;;10.24;36.37;101835.72;4988217;28;20141;-66
2021/04/21 10:01:25;;;;;;;7.65;0.90;;;;;;;10.88;35.41;101835.91;4989823;28;20068;-66
2021/04/21 10:04:13;;;;;;;12.68;0.90;;;;;;;10.99;34.57;101832.09;4989484;28;20247;-66
2021/04/21 10:06:53;;;;;;;6.35;0.80;;;;;;;11.64;33.29;101840.78;4987377;28;20044;-66
2021/04/21 10:09:37;;;;;;;9.18;1.40;;;;;;;11.17;33.08;101836.00;4989070;28;20036;-65
2021/04/21 10:12:14;;;;;;;2.00;0.38;;;;;;;11.58;32.66;101833.13;4987859;28;20113;-66
2021/04/21 10:14:40;;;;;;;5.95;0.85;;;;;;;11.39;32.17;101831.00;4991031;28;20168;-66
2021/04/21 10:17:07;;;;;;;6.03;0.75;;;;;;;10.87;34.19;101840.28;4988134;28;20062;-66
2021/04/21 10:19:33;;;;;;;5.60;0.65;;;;;;;10.89;33.09;101846.34;4986415;28;20042;-66
2021/04/21 10:21:59;;;;;;;10.90;0.80;;;;;;;10.74;33.34;101841.44;4970144;28;20513;-66
2021/04/21 10:24:27;;;;;;;9.15;0.63;;;;;;;10.62;33.66;101845.25;4985834;28;20310;-66
2021/04/21 10:26:56;;;;;;;5.72;0.90;;;;;;;10.44;33.49;101846.56;4988964;28;20037;-66
2021/04/21 10:29:23;;;;;;;5.20;1.10;;;;;;;10.31;34.68;101853.81;4988532;28;20106;-65
2021/04/21 10:31:52;;;;;;;3.78;1.50;;;;;;;9.78;36.04;101861.91;5002936;28;20061;-66
2021/04/21 10:34:20;;;;;;;10.50;1.15;;;;;;;9.65;35.83;101847.38;4989331;28;20505;-67
2021/04/21 10:36:52;;;;;;;9.70;0.80;;;;;;;10.11;34.97;101853.41;5003503;28;20052;-65
2021/04/21 10:39:29;;;;;;;5.88;0.50;;;;;;;9.98;34.72;101853.66;4988458;28;20027;-66
2021/04/21 10:42:11;;;;;;;9.35;1.58;;;;;;;10.06;34.80;101853.53;4990865;28;20078;-67
2021/04/21 10:44:38;;;;;;;;;;;;;;;10.27;34.00;101856.53;4986369;28;20512;-67
2021/04/21 10:47:10;;;;;;;9.77;1.83;;;;;;;10.82;32.72;101850.84;4989135;28;19914;-65
2021/04/21 10:50:06;;;;;;;11.02;1.33;;;;;;;10.34;33.88;101860.72;4987347;28;20505;-65
2021/04/21 10:52:31;;;;;;;12.93;1.00;;;;;;;10.59;33.08;101861.88;4986442;28;20058;-66
2021/04/21 10:54:58;;;;;;;9.15;0.80;;;;;;;10.84;32.56;101861.28;5015226;22;20083;-61
2021/04/21 10:57:26;;;;;;;8.27;1.17;;;;;;;10.32;34.92;101854.66;5016457;28;20072;-64
2021/04/21 11:00:25;;;;;;;9.43;2.10;;;;;;;10.26;33.93;101860.91;4999837;28;20085;-63
2021/04/21 11:03:04;;;;;;;10.98;1.33;;;;;;;10.40;34.72;101857.97;5006861;28;20120;-62
2021/04/21 11:05:36;;;;;;;17.40;0.73;;;;;;;11.56;32.98;101864.56;5009240;28;20056;-62
2021/04/21 11:08:04;;;;;;;9.30;1.00;;;;;;;12.80;31.09;101856.44;5008542;28;20037;-62
2021/04/21 11:10:44;;;;;;;7.55;1.27;;;;;;;12.80;30.37;101861.69;5012796;28;20110;-62
2021/04/21 11:13:12;;;;;;;12.88;0.70;;;;;;;12.16;30.86;101862.00;5011271;28;20034;-62
2021/04/21 11:15:45;;;;;;;4.10;1.10;;;;;;;11.48;30.95;101863.91;5010993;28;20038;-62
2021/04/21 11:18:10;;;;;;;13.63;1.58;;;;;;;12.98;29.24;101858.47;5010735;28;20476;-62
2021/04/21 11:20:45;;;;;;;8.07;0.98;;;;;;;13.41;29.15;101863.94;5009832;28;20057;-64
2021/04/21 11:23:45;;;;;;;8.52;1.45;;;;;;;13.03;28.48;101859.13;5011752;28;20042;-62
2021/04/21 11:26:22;;;;;;;14.68;1.25;;;;;;;12.29;29.01;101868.56;5010256;28;20144;-62
2021/04/21 11:29:02;;;;;;;7.70;1.02;;;;;;;12.02;30.06;101870.25;5012308;28;20026;-62
2021/04/21 11:31:44;;;;;;;3.38;0.52;;;;;;;12.05;30.14;101868.41;5009663;28;20301;-67
2021/04/21 11:34:12;;;;;;;9.23;1.17;;;;;;;11.77;30.86;101880.56;5008912;28;20065;-63
2021/04/21 11:37:02;;;;;;;11.70;0.90;;;;;;;11.66;31.39;101880.88;5008782;28;20067;-62
2021/04/21 11:39:43;;;;;;;7.60;1.42;;;;;;;11.66;29.93;101878.25;5010613;28;20037;-61
2021/04/21 11:42:34;;;;;;;5.70;1.10;;;;;;;11.59;29.95;101884.56;5011089;28;20037;-63
2021/04/21 11:45:11;;;;;;;8.82;1.33;;;;;;;10.61;31.08;101887.94;5015619;28;20440;-62
2021/04/21 11:47:47;;;;;;;13.82;2.15;;;;;;;10.46;30.93;101883.97;5009473;28;20039;-60
2021/04/21 11:50:16;;;;;;;10.48;1.65;;;;;;;10.01;31.28;101889.31;5012182;28;20038;-60
2021/04/21 11:52:57;;;;;;;6.22;0.80;;;;;;;10.48;30.27;101882.19;5007158;28;20633;-63
2021/04/21 11:55:23;;;;;;;7.22;1.17;;;;;;;10.09;31.53;101884.78;5007822;28;20113;-62
2021/04/21 11:57:52;;;;;;;10.18;2.33;;;;;;;10.40;31.23;101886.72;4998172;28;20579;-60
2021/04/21 12:00:22;;;;;;;8.27;1.38;;;;;;;10.25;31.36;101879.22;5009975;28;20451;-62
2021/04/21 12:02:48;;;;;;;10.40;1.30;;;;;;;10.64;30.59;101883.53;5012801;28;20044;-61
2021/04/21 12:05:19;;;;;;;6.85;1.23;;;;;;;10.18;32.33;101883.72;5007625;28;20125;-61
2021/04/21 12:07:46;;;;;;;10.57;1.17;;;;;;;11.04;30.37;101879.09;5008054;28;20045;-63
2021/04/21 12:10:13;;;;;;;7.10;1.35;;;;;;;11.72;30.36;101878.09;5008420;28;20041;-62
2021/04/21 12:12:38;;;;;;;11.07;1.55;;;;;;;11.63;28.78;101880.97;5007284;28;20034;-62